sensor_id;sensor_type;location;lat;lon;timestamp;P1;durP1;ratioP1;P2;durP2;ratioP2
25637;SDS011;13496;51.040;13.680;2023-04-16T00:03:31;9.23;;;8.32;;
25637;SDS011;13496;51.040;13.680;2023-04-16T00:08:33;9.63;;;8.20;;
25637;SDS011;13496;51.040;13.680;2023-04-16T00:13:36;8.55;;;7.65;;
25637;SDS011;13496;51.040;13.680;2023-04-16T00:18:37;8.40;;;7.60;;
25637;SDS011;13496;51.040;13.680;2023-04-16T00:23:39;8.02;;;7.22;;
25637;SDS011;13496;51.040;13.680;2023-04-16T00:28:41;8.60;;;7.70;;
25637;SDS011;13496;51.040;13.680;2023-04-16T00:33:43;8.10;;;7.30;;
25637;SDS011;13496;51.040;13.680;2023-04-16T00:38:44;7.73;;;6.93;;
25637;SDS011;13496;51.040;13.680;2023-04-16T00:43:46;7.27;;;6.50;;
25637;SDS011;13496;51.040;13.680;2023-04-16T00:48:47;7.27;;;6.57;;
25637;SDS011;13496;51.040;13.680;2023-04-16T00:53:51;8.50;;;7.63;;
25637;SDS011;13496;51.040;13.680;2023-04-16T00:58:53;7.63;;;6.93;;
25637;SDS011;13496;51.040;13.680;2023-04-16T01:03:55;7.10;;;6.38;;
25637;SDS011;13496;51.040;13.680;2023-04-16T01:08:57;6.80;;;6.10;;
25637;SDS011;13496;51.040;13.680;2023-04-16T01:13:59;6.75;;;6.15;;
25637;SDS011;13496;51.040;13.680;2023-04-16T01:19:00;7.43;;;6.57;;
25637;SDS011;13496;51.040;13.680;2023-04-16T01:24:02;6.70;;;6.07;;
25637;SDS011;13496;51.040;13.680;2023-04-16T01:29:04;6.97;;;6.28;;
25637;SDS011;13496;51.040;13.680;2023-04-16T01:34:07;6.25;;;5.65;;
25637;SDS011;13496;51.040;13.680;2023-04-16T01:39:09;6.30;;;5.70;;
25637;SDS011;13496;51.040;13.680;2023-04-16T01:44:14;6.65;;;6.05;;
25637;SDS011;13496;51.040;13.680;2023-04-16T01:49:17;5.60;;;5.05;;
25637;SDS011;13496;51.040;13.680;2023-04-16T01:54:18;6.35;;;5.75;;
25637;SDS011;13496;51.040;13.680;2023-04-16T01:59:20;6.70;;;6.00;;
25637;SDS011;13496;51.040;13.680;2023-04-16T02:04:22;5.85;;;5.28;;
25637;SDS011;13496;51.040;13.680;2023-04-16T02:09:24;6.20;;;5.60;;
25637;SDS011;13496;51.040;13.680;2023-04-16T02:14:28;6.20;;;5.60;;
25637;SDS011;13496;51.040;13.680;2023-04-16T02:19:31;5.60;;;5.10;;
25637;SDS011;13496;51.040;13.680;2023-04-16T02:24:32;5.83;;;5.33;;
25637;SDS011;13496;51.040;13.680;2023-04-16T02:29:38;5.32;;;4.82;;
25637;SDS011;13496;51.040;13.680;2023-04-16T02:34:48;5.13;;;4.70;;
25637;SDS011;13496;51.040;13.680;2023-04-16T02:39:50;5.63;;;5.10;;
25637;SDS011;13496;51.040;13.680;2023-04-16T02:44:54;5.20;;;4.70;;
25637;SDS011;13496;51.040;13.680;2023-04-16T02:49:56;5.43;;;4.93;;
25637;SDS011;13496;51.040;13.680;2023-04-16T02:54:57;5.27;;;4.77;;
25637;SDS011;13496;51.040;13.680;2023-04-16T02:59:59;5.90;;;5.20;;
25637;SDS011;13496;51.040;13.680;2023-04-16T03:05:02;5.17;;;4.67;;
25637;SDS011;13496;51.040;13.680;2023-04-16T03:10:04;4.47;;;4.07;;
25637;SDS011;13496;51.040;13.680;2023-04-16T03:15:07;4.95;;;4.50;;
25637;SDS011;13496;51.040;13.680;2023-04-16T03:20:09;4.70;;;4.20;;
25637;SDS011;13496;51.040;13.680;2023-04-16T03:25:11;4.82;;;3.78;;
25637;SDS011;13496;51.040;13.680;2023-04-16T03:30:14;4.33;;;3.93;;
25637;SDS011;13496;51.040;13.680;2023-04-16T03:35:17;4.35;;;3.90;;
25637;SDS011;13496;51.040;13.680;2023-04-16T03:40:19;4.97;;;4.47;;
25637;SDS011;13496;51.040;13.680;2023-04-16T03:45:21;4.53;;;4.13;;
25637;SDS011;13496;51.040;13.680;2023-04-16T03:50:25;4.60;;;4.20;;
25637;SDS011;13496;51.040;13.680;2023-04-16T03:55:27;4.73;;;4.33;;
25637;SDS011;13496;51.040;13.680;2023-04-16T04:00:29;4.87;;;4.33;;
25637;SDS011;13496;51.040;13.680;2023-04-16T04:05:39;4.53;;;4.13;;
25637;SDS011;13496;51.040;13.680;2023-04-16T04:10:44;5.57;;;4.00;;
25637;SDS011;13496;51.040;13.680;2023-04-16T04:15:48;4.50;;;4.10;;
25637;SDS011;13496;51.040;13.680;2023-04-16T04:20:50;4.47;;;4.07;;
25637;SDS011;13496;51.040;13.680;2023-04-16T04:25:55;4.53;;;4.13;;
25637;SDS011;13496;51.040;13.680;2023-04-16T04:30:57;4.10;;;3.70;;
25637;SDS011;13496;51.040;13.680;2023-04-16T04:36:00;4.30;;;3.90;;
25637;SDS011;13496;51.040;13.680;2023-04-16T04:41:02;4.07;;;3.67;;
25637;SDS011;13496;51.040;13.680;2023-04-16T04:46:08;3.75;;;3.45;;
25637;SDS011;13496;51.040;13.680;2023-04-16T04:51:10;3.95;;;3.63;;
25637;SDS011;13496;51.040;13.680;2023-04-16T04:56:12;3.70;;;3.40;;
25637;SDS011;13496;51.040;13.680;2023-04-16T05:01:13;3.50;;;3.20;;
25637;SDS011;13496;51.040;13.680;2023-04-16T05:06:15;4.03;;;3.72;;
25637;SDS011;13496;51.040;13.680;2023-04-16T05:11:17;3.78;;;3.47;;
25637;SDS011;13496;51.040;13.680;2023-04-16T05:16:18;3.90;;;3.60;;
25637;SDS011;13496;51.040;13.680;2023-04-16T05:21:20;3.90;;;3.60;;
25637;SDS011;13496;51.040;13.680;2023-04-16T05:26:22;3.70;;;3.40;;
25637;SDS011;13496;51.040;13.680;2023-04-16T05:31:24;3.60;;;3.30;;
25637;SDS011;13496;51.040;13.680;2023-04-16T05:36:26;3.90;;;3.60;;
25637;SDS011;13496;51.040;13.680;2023-04-16T05:41:28;3.73;;;3.43;;
25637;SDS011;13496;51.040;13.680;2023-04-16T05:46:29;3.40;;;3.10;;
25637;SDS011;13496;51.040;13.680;2023-04-16T05:51:31;3.27;;;3.07;;
25637;SDS011;13496;51.040;13.680;2023-04-16T05:56:33;3.40;;;3.10;;
25637;SDS011;13496;51.040;13.680;2023-04-16T06:01:35;3.30;;;3.00;;
25637;SDS011;13496;51.040;13.680;2023-04-16T06:06:36;3.53;;;3.22;;
25637;SDS011;13496;51.040;13.680;2023-04-16T06:11:38;3.60;;;3.30;;
25637;SDS011;13496;51.040;13.680;2023-04-16T06:16:40;3.77;;;3.37;;
25637;SDS011;13496;51.040;13.680;2023-04-16T06:21:41;4.00;;;3.50;;
25637;SDS011;13496;51.040;13.680;2023-04-16T06:26:43;4.43;;;3.70;;
25637;SDS011;13496;51.040;13.680;2023-04-16T06:31:45;4.18;;;3.83;;
25637;SDS011;13496;51.040;13.680;2023-04-16T06:36:46;6.32;;;4.70;;
25637;SDS011;13496;51.040;13.680;2023-04-16T06:41:48;5.78;;;4.75;;
25637;SDS011;13496;51.040;13.680;2023-04-16T06:46:49;5.03;;;4.53;;
25637;SDS011;13496;51.040;13.680;2023-04-16T06:51:51;6.65;;;4.75;;
25637;SDS011;13496;51.040;13.680;2023-04-16T06:56:53;6.38;;;5.20;;
25637;SDS011;13496;51.040;13.680;2023-04-16T07:01:54;6.10;;;5.47;;
25637;SDS011;13496;51.040;13.680;2023-04-16T07:06:57;7.60;;;5.25;;
25637;SDS011;13496;51.040;13.680;2023-04-16T07:11:58;7.05;;;5.55;;
25637;SDS011;13496;51.040;13.680;2023-04-16T07:17:00;6.57;;;5.80;;
25637;SDS011;13496;51.040;13.680;2023-04-16T07:22:02;7.30;;;5.93;;
25637;SDS011;13496;51.040;13.680;2023-04-16T07:27:04;6.22;;;5.60;;
25637;SDS011;13496;51.040;13.680;2023-04-16T07:32:06;8.45;;;6.03;;
25637;SDS011;13496;51.040;13.680;2023-04-16T07:37:08;7.40;;;6.13;;
25637;SDS011;13496;51.040;13.680;2023-04-16T07:42:10;6.72;;;6.03;;
25637;SDS011;13496;51.040;13.680;2023-04-16T07:47:11;6.30;;;5.53;;
25637;SDS011;13496;51.040;13.680;2023-04-16T07:52:13;7.25;;;5.53;;
25637;SDS011;13496;51.040;13.680;2023-04-16T07:57:15;6.40;;;5.55;;
25637;SDS011;13496;51.040;13.680;2023-04-16T08:02:17;8.60;;;5.93;;
25637;SDS011;13496;51.040;13.680;2023-04-16T08:07:19;6.55;;;5.50;;
25637;SDS011;13496;51.040;13.680;2023-04-16T08:12:21;8.80;;;5.88;;
25637;SDS011;13496;51.040;13.680;2023-04-16T08:17:22;6.07;;;5.40;;
25637;SDS011;13496;51.040;13.680;2023-04-16T08:22:24;6.40;;;5.70;;
25637;SDS011;13496;51.040;13.680;2023-04-16T08:27:26;8.23;;;5.88;;
25637;SDS011;13496;51.040;13.680;2023-04-16T08:32:28;9.93;;;5.93;;
25637;SDS011;13496;51.040;13.680;2023-04-16T08:37:30;8.57;;;6.40;;
25637;SDS011;13496;51.040;13.680;2023-04-16T08:42:32;7.05;;;5.80;;
25637;SDS011;13496;51.040;13.680;2023-04-16T08:47:40;6.45;;;5.32;;
25637;SDS011;13496;51.040;13.680;2023-04-16T08:52:49;6.95;;;5.63;;
25637;SDS011;13496;51.040;13.680;2023-04-16T08:57:53;8.25;;;5.78;;
25637;SDS011;13496;51.040;13.680;2023-04-16T09:03:00;8.80;;;6.13;;
25637;SDS011;13496;51.040;13.680;2023-04-16T09:08:03;10.65;;;6.53;;
25637;SDS011;13496;51.040;13.680;2023-04-16T09:13:06;7.38;;;5.75;;
25637;SDS011;13496;51.040;13.680;2023-04-16T09:18:11;9.52;;;6.22;;
25637;SDS011;13496;51.040;13.680;2023-04-16T09:23:13;8.38;;;6.22;;
25637;SDS011;13496;51.040;13.680;2023-04-16T09:33:39;8.20;;;6.28;;
25637;SDS011;13496;51.040;13.680;2023-04-16T09:38:48;12.55;;;6.72;;
25637;SDS011;13496;51.040;13.680;2023-04-16T09:43:55;7.60;;;5.60;;
25637;SDS011;13496;51.040;13.680;2023-04-16T09:48:58;8.18;;;6.25;;
25637;SDS011;13496;51.040;13.680;2023-04-16T09:54:06;7.13;;;5.97;;
25637;SDS011;13496;51.040;13.680;2023-04-16T09:59:18;7.95;;;6.20;;
25637;SDS011;13496;51.040;13.680;2023-04-16T10:04:20;10.43;;;6.75;;
25637;SDS011;13496;51.040;13.680;2023-04-16T10:09:22;6.25;;;5.65;;
25637;SDS011;13496;51.040;13.680;2023-04-16T10:14:25;8.55;;;6.38;;
25637;SDS011;13496;51.040;13.680;2023-04-16T10:19:27;8.95;;;6.28;;
25637;SDS011;13496;51.040;13.680;2023-04-16T10:24:29;118.10;;;67.80;;
25637;SDS011;13496;51.040;13.680;2023-04-16T10:29:32;192.82;;;116.47;;
25637;SDS011;13496;51.040;13.680;2023-04-16T10:34:35;233.60;;;140.95;;
25637;SDS011;13496;51.040;13.680;2023-04-16T10:39:37;174.23;;;104.70;;
25637;SDS011;13496;51.040;13.680;2023-04-16T10:44:41;149.35;;;88.32;;
25637;SDS011;13496;51.040;13.680;2023-04-16T10:49:43;169.43;;;103.70;;
25637;SDS011;13496;51.040;13.680;2023-04-16T10:54:47;175.00;;;106.63;;
25637;SDS011;13496;51.040;13.680;2023-04-16T10:59:50;188.18;;;116.05;;
25637;SDS011;13496;51.040;13.680;2023-04-16T11:04:51;135.02;;;83.18;;
25637;SDS011;13496;51.040;13.680;2023-04-16T11:09:57;140.13;;;85.47;;
25637;SDS011;13496;51.040;13.680;2023-04-16T11:15:07;153.00;;;95.68;;
25637;SDS011;13496;51.040;13.680;2023-04-16T11:25:19;139.93;;;88.10;;
25637;SDS011;13496;51.040;13.680;2023-04-16T11:30:35;137.88;;;87.47;;
25637;SDS011;13496;51.040;13.680;2023-04-16T11:35:39;151.98;;;93.78;;
25637;SDS011;13496;51.040;13.680;2023-04-16T11:40:41;178.35;;;113.05;;
25637;SDS011;13496;51.040;13.680;2023-04-16T11:45:54;169.18;;;104.68;;
25637;SDS011;13496;51.040;13.680;2023-04-16T11:51:06;165.98;;;101.18;;
25637;SDS011;13496;51.040;13.680;2023-04-16T11:56:08;153.32;;;95.40;;
25637;SDS011;13496;51.040;13.680;2023-04-16T12:01:11;160.88;;;102.00;;
25637;SDS011;13496;51.040;13.680;2023-04-16T12:06:12;160.65;;;102.00;;
25637;SDS011;13496;51.040;13.680;2023-04-16T12:11:14;160.95;;;99.07;;
25637;SDS011;13496;51.040;13.680;2023-04-16T12:16:19;165.32;;;107.90;;
25637;SDS011;13496;51.040;13.680;2023-04-16T12:21:21;169.70;;;106.93;;
25637;SDS011;13496;51.040;13.680;2023-04-16T12:26:23;167.65;;;102.82;;
25637;SDS011;13496;51.040;13.680;2023-04-16T12:31:37;163.73;;;100.00;;
25637;SDS011;13496;51.040;13.680;2023-04-16T12:36:39;156.98;;;103.30;;
25637;SDS011;13496;51.040;13.680;2023-04-16T12:41:42;155.35;;;98.40;;
25637;SDS011;13496;51.040;13.680;2023-04-16T12:46:45;144.88;;;95.78;;
25637;SDS011;13496;51.040;13.680;2023-04-16T12:51:47;145.63;;;95.32;;
25637;SDS011;13496;51.040;13.680;2023-04-16T12:56:49;140.40;;;90.90;;
25637;SDS011;13496;51.040;13.680;2023-04-16T13:01:51;139.27;;;88.57;;
25637;SDS011;13496;51.040;13.680;2023-04-16T13:06:52;135.25;;;87.53;;
25637;SDS011;13496;51.040;13.680;2023-04-16T13:11:54;127.50;;;81.20;;
25637;SDS011;13496;51.040;13.680;2023-04-16T13:16:56;123.85;;;82.65;;
25637;SDS011;13496;51.040;13.680;2023-04-16T13:21:58;128.13;;;80.60;;
25637;SDS011;13496;51.040;13.680;2023-04-16T13:26:59;125.18;;;80.40;;
25637;SDS011;13496;51.040;13.680;2023-04-16T13:32:01;126.18;;;81.55;;
25637;SDS011;13496;51.040;13.680;2023-04-16T13:37:03;116.65;;;75.90;;
25637;SDS011;13496;51.040;13.680;2023-04-16T13:42:05;120.57;;;76.53;;
25637;SDS011;13496;51.040;13.680;2023-04-16T13:47:07;112.70;;;74.38;;
25637;SDS011;13496;51.040;13.680;2023-04-16T13:52:09;112.22;;;73.43;;
25637;SDS011;13496;51.040;13.680;2023-04-16T13:57:10;116.47;;;74.55;;
25637;SDS011;13496;51.040;13.680;2023-04-16T14:02:12;116.22;;;71.35;;
25637;SDS011;13496;51.040;13.680;2023-04-16T14:07:14;113.50;;;71.10;;
25637;SDS011;13496;51.040;13.680;2023-04-16T14:12:16;134.88;;;73.47;;
25637;SDS011;13496;51.040;13.680;2023-04-16T14:17:18;132.38;;;70.93;;
25637;SDS011;13496;51.040;13.680;2023-04-16T14:22:20;112.68;;;65.70;;
25637;SDS011;13496;51.040;13.680;2023-04-16T14:27:21;108.38;;;64.25;;
25637;SDS011;13496;51.040;13.680;2023-04-16T14:32:23;104.20;;;64.80;;
25637;SDS011;13496;51.040;13.680;2023-04-16T14:37:25;110.20;;;63.63;;
25637;SDS011;13496;51.040;13.680;2023-04-16T14:42:27;102.60;;;60.03;;
25637;SDS011;13496;51.040;13.680;2023-04-16T14:47:29;91.15;;;57.45;;
25637;SDS011;13496;51.040;13.680;2023-04-16T14:52:31;90.05;;;56.55;;
25637;SDS011;13496;51.040;13.680;2023-04-16T14:57:33;94.75;;;56.53;;
25637;SDS011;13496;51.040;13.680;2023-04-16T15:02:35;88.68;;;55.75;;
25637;SDS011;13496;51.040;13.680;2023-04-16T15:07:37;87.05;;;53.83;;
25637;SDS011;13496;51.040;13.680;2023-04-16T15:12:38;83.88;;;51.90;;
25637;SDS011;13496;51.040;13.680;2023-04-16T15:17:41;77.05;;;50.33;;
25637;SDS011;13496;51.040;13.680;2023-04-16T15:22:43;72.95;;;48.92;;
25637;SDS011;13496;51.040;13.680;2023-04-16T15:27:45;79.75;;;48.72;;
25637;SDS011;13496;51.040;13.680;2023-04-16T15:32:46;69.35;;;46.60;;
25637;SDS011;13496;51.040;13.680;2023-04-16T15:37:48;72.35;;;47.97;;
25637;SDS011;13496;51.040;13.680;2023-04-16T15:42:53;70.78;;;44.80;;
25637;SDS011;13496;51.040;13.680;2023-04-16T15:47:56;74.10;;;44.10;;
25637;SDS011;13496;51.040;13.680;2023-04-16T15:52:57;68.70;;;44.00;;
25637;SDS011;13496;51.040;13.680;2023-04-16T15:57:59;59.90;;;40.55;;
25637;SDS011;13496;51.040;13.680;2023-04-16T16:03:01;56.85;;;37.00;;
25637;SDS011;13496;51.040;13.680;2023-04-16T16:08:03;55.15;;;36.42;;
25637;SDS011;13496;51.040;13.680;2023-04-16T16:13:05;54.17;;;36.60;;
25637;SDS011;13496;51.040;13.680;2023-04-16T16:18:08;55.35;;;35.05;;
25637;SDS011;13496;51.040;13.680;2023-04-16T16:23:10;43.83;;;31.15;;
25637;SDS011;13496;51.040;13.680;2023-04-16T16:28:12;46.88;;;32.05;;
25637;SDS011;13496;51.040;13.680;2023-04-16T16:33:13;44.05;;;31.48;;
25637;SDS011;13496;51.040;13.680;2023-04-16T16:38:15;43.67;;;29.85;;
25637;SDS011;13496;51.040;13.680;2023-04-16T16:43:17;43.00;;;28.00;;
25637;SDS011;13496;51.040;13.680;2023-04-16T16:48:19;42.30;;;28.25;;
25637;SDS011;13496;51.040;13.680;2023-04-16T16:53:21;41.15;;;26.55;;
25637;SDS011;13496;51.040;13.680;2023-04-16T16:58:23;38.35;;;26.48;;
25637;SDS011;13496;51.040;13.680;2023-04-16T17:03:24;35.00;;;25.33;;
25637;SDS011;13496;51.040;13.680;2023-04-16T17:08:26;36.35;;;24.15;;
25637;SDS011;13496;51.040;13.680;2023-04-16T17:13:29;31.77;;;24.52;;
25637;SDS011;13496;51.040;13.680;2023-04-16T17:18:32;32.88;;;22.90;;
25637;SDS011;13496;51.040;13.680;2023-04-16T17:23:35;32.50;;;22.70;;
25637;SDS011;13496;51.040;13.680;2023-04-16T17:28:37;26.95;;;20.13;;
25637;SDS011;13496;51.040;13.680;2023-04-16T17:33:39;32.95;;;21.48;;
25637;SDS011;13496;51.040;13.680;2023-04-16T17:38:40;30.02;;;21.42;;
25637;SDS011;13496;51.040;13.680;2023-04-16T17:43:42;29.15;;;20.00;;
25637;SDS011;13496;51.040;13.680;2023-04-16T17:48:44;29.27;;;20.33;;
25637;SDS011;13496;51.040;13.680;2023-04-16T17:53:47;28.30;;;19.67;;
25637;SDS011;13496;51.040;13.680;2023-04-16T17:58:49;25.17;;;18.48;;
25637;SDS011;13496;51.040;13.680;2023-04-16T18:03:51;28.13;;;19.35;;
25637;SDS011;13496;51.040;13.680;2023-04-16T18:08:53;29.73;;;19.33;;
25637;SDS011;13496;51.040;13.680;2023-04-16T18:13:54;25.83;;;18.92;;
25637;SDS011;13496;51.040;13.680;2023-04-16T18:18:56;27.38;;;19.05;;
25637;SDS011;13496;51.040;13.680;2023-04-16T18:23:58;26.40;;;17.95;;
25637;SDS011;13496;51.040;13.680;2023-04-16T18:29:01;25.52;;;17.77;;
25637;SDS011;13496;51.040;13.680;2023-04-16T18:34:03;27.02;;;18.45;;
25637;SDS011;13496;51.040;13.680;2023-04-16T18:39:04;24.10;;;16.90;;
25637;SDS011;13496;51.040;13.680;2023-04-16T18:44:07;25.40;;;16.88;;
25637;SDS011;13496;51.040;13.680;2023-04-16T18:49:11;23.45;;;16.70;;
25637;SDS011;13496;51.040;13.680;2023-04-16T18:54:12;22.63;;;17.02;;
25637;SDS011;13496;51.040;13.680;2023-04-16T18:59:14;23.70;;;17.02;;
25637;SDS011;13496;51.040;13.680;2023-04-16T19:04:16;21.90;;;16.48;;
25637;SDS011;13496;51.040;13.680;2023-04-16T19:09:18;19.88;;;15.07;;
25637;SDS011;13496;51.040;13.680;2023-04-16T19:14:20;22.50;;;15.45;;
25637;SDS011;13496;51.040;13.680;2023-04-16T19:19:22;22.08;;;15.95;;
25637;SDS011;13496;51.040;13.680;2023-04-16T19:24:23;22.02;;;15.07;;
25637;SDS011;13496;51.040;13.680;2023-04-16T19:29:25;20.05;;;14.45;;
25637;SDS011;13496;51.040;13.680;2023-04-16T19:34:28;17.13;;;13.75;;
25637;SDS011;13496;51.040;13.680;2023-04-16T19:39:29;21.55;;;15.02;;
25637;SDS011;13496;51.040;13.680;2023-04-16T19:44:32;19.88;;;15.15;;
25637;SDS011;13496;51.040;13.680;2023-04-16T19:49:34;21.30;;;15.13;;
25637;SDS011;13496;51.040;13.680;2023-04-16T19:54:36;18.63;;;13.90;;
25637;SDS011;13496;51.040;13.680;2023-04-16T19:59:37;19.90;;;13.82;;
25637;SDS011;13496;51.040;13.680;2023-04-16T20:04:39;21.30;;;13.80;;
25637;SDS011;13496;51.040;13.680;2023-04-16T20:09:41;18.70;;;12.77;;
25637;SDS011;13496;51.040;13.680;2023-04-16T20:14:42;16.10;;;13.35;;
25637;SDS011;13496;51.040;13.680;2023-04-16T20:19:45;17.17;;;13.25;;
25637;SDS011;13496;51.040;13.680;2023-04-16T20:24:51;16.15;;;12.52;;
25637;SDS011;13496;51.040;13.680;2023-04-16T20:29:55;15.40;;;11.73;;
25637;SDS011;13496;51.040;13.680;2023-04-16T20:34:57;14.85;;;11.60;;
25637;SDS011;13496;51.040;13.680;2023-04-16T20:39:58;15.18;;;11.27;;
25637;SDS011;13496;51.040;13.680;2023-04-16T20:45:00;15.82;;;12.02;;
25637;SDS011;13496;51.040;13.680;2023-04-16T20:50:02;15.82;;;10.35;;
25637;SDS011;13496;51.040;13.680;2023-04-16T20:55:04;12.80;;;10.65;;
25637;SDS011;13496;51.040;13.680;2023-04-16T21:00:06;13.27;;;10.00;;
25637;SDS011;13496;51.040;13.680;2023-04-16T21:05:10;13.07;;;10.48;;
25637;SDS011;13496;51.040;13.680;2023-04-16T21:10:14;12.20;;;9.85;;
25637;SDS011;13496;51.040;13.680;2023-04-16T21:15:20;13.05;;;10.60;;
25637;SDS011;13496;51.040;13.680;2023-04-16T21:20:21;12.93;;;9.95;;
25637;SDS011;13496;51.040;13.680;2023-04-16T21:25:23;13.63;;;10.43;;
25637;SDS011;13496;51.040;13.680;2023-04-16T21:30:25;13.07;;;10.63;;
25637;SDS011;13496;51.040;13.680;2023-04-16T21:35:29;11.48;;;9.23;;
25637;SDS011;13496;51.040;13.680;2023-04-16T21:40:31;11.95;;;9.68;;
25637;SDS011;13496;51.040;13.680;2023-04-16T21:45:33;12.07;;;9.95;;
25637;SDS011;13496;51.040;13.680;2023-04-16T21:50:35;12.57;;;9.10;;
25637;SDS011;13496;51.040;13.680;2023-04-16T21:55:36;10.18;;;8.48;;
25637;SDS011;13496;51.040;13.680;2023-04-16T22:00:40;12.82;;;9.13;;
25637;SDS011;13496;51.040;13.680;2023-04-16T22:05:43;9.82;;;8.27;;
25637;SDS011;13496;51.040;13.680;2023-04-16T22:10:45;9.90;;;8.30;;
25637;SDS011;13496;51.040;13.680;2023-04-16T22:15:46;9.93;;;7.80;;
25637;SDS011;13496;51.040;13.680;2023-04-16T22:20:48;9.70;;;7.97;;
25637;SDS011;13496;51.040;13.680;2023-04-16T22:25:52;10.45;;;8.27;;
25637;SDS011;13496;51.040;13.680;2023-04-16T22:30:55;9.68;;;8.18;;
25637;SDS011;13496;51.040;13.680;2023-04-16T22:35:58;8.18;;;7.38;;
25637;SDS011;13496;51.040;13.680;2023-04-16T22:41:00;9.93;;;7.38;;
25637;SDS011;13496;51.040;13.680;2023-04-16T22:46:02;10.07;;;7.65;;
25637;SDS011;13496;51.040;13.680;2023-04-16T22:51:07;10.00;;;7.80;;
25637;SDS011;13496;51.040;13.680;2023-04-16T22:56:09;9.25;;;7.38;;
25637;SDS011;13496;51.040;13.680;2023-04-16T23:01:11;8.25;;;6.93;;
25637;SDS011;13496;51.040;13.680;2023-04-16T23:06:12;8.13;;;7.13;;
25637;SDS011;13496;51.040;13.680;2023-04-16T23:11:14;7.60;;;6.65;;
25637;SDS011;13496;51.040;13.680;2023-04-16T23:16:16;8.32;;;7.03;;
25637;SDS011;13496;51.040;13.680;2023-04-16T23:21:18;7.95;;;6.70;;
25637;SDS011;13496;51.040;13.680;2023-04-16T23:26:19;8.45;;;7.25;;
25637;SDS011;13496;51.040;13.680;2023-04-16T23:31:21;8.15;;;6.60;;
25637;SDS011;13496;51.040;13.680;2023-04-16T23:36:23;6.82;;;6.13;;
25637;SDS011;13496;51.040;13.680;2023-04-16T23:41:24;7.47;;;6.68;;
25637;SDS011;13496;51.040;13.680;2023-04-16T23:46:26;8.35;;;6.40;;
25637;SDS011;13496;51.040;13.680;2023-04-16T23:51:28;6.38;;;5.75;;
25637;SDS011;13496;51.040;13.680;2023-04-16T23:56:29;9.32;;;6.65;;
